sensor_id;sensor_type;location;lat;lon;timestamp;P1;durP1;ratioP1;P2;durP2;ratioP2
73168;SDS011;61379;59.732;30.468;2023-06-26T00:00:31;12.90;;;11.02;;
73168;SDS011;61379;59.732;30.468;2023-06-26T00:02:58;13.35;;;10.73;;
73168;SDS011;61379;59.732;30.468;2023-06-26T00:05:26;12.25;;;10.98;;
73168;SDS011;61379;59.732;30.468;2023-06-26T00:07:55;13.02;;;11.63;;
73168;SDS011;61379;59.732;30.468;2023-06-26T00:10:25;13.32;;;11.68;;
73168;SDS011;61379;59.732;30.468;2023-06-26T00:12:52;12.82;;;11.52;;
73168;SDS011;61379;59.732;30.468;2023-06-26T00:15:19;12.88;;;10.38;;
73168;SDS011;61379;59.732;30.468;2023-06-26T00:17:46;13.38;;;11.68;;
73168;SDS011;61379;59.732;30.468;2023-06-26T00:20:13;12.25;;;10.95;;
73168;SDS011;61379;59.732;30.468;2023-06-26T00:22:43;13.68;;;10.68;;
73168;SDS011;61379;59.732;30.468;2023-06-26T00:25:10;13.60;;;10.55;;
73168;SDS011;61379;59.732;30.468;2023-06-26T00:27:37;14.27;;;11.52;;
73168;SDS011;61379;59.732;30.468;2023-06-26T00:30:04;13.40;;;11.48;;
73168;SDS011;61379;59.732;30.468;2023-06-26T00:32:31;15.43;;;11.32;;
73168;SDS011;61379;59.732;30.468;2023-06-26T00:34:58;14.02;;;10.93;;
73168;SDS011;61379;59.732;30.468;2023-06-26T00:37:25;13.32;;;10.30;;
73168;SDS011;61379;59.732;30.468;2023-06-26T00:39:53;12.10;;;10.68;;
73168;SDS011;61379;59.732;30.468;2023-06-26T00:42:19;14.52;;;11.00;;
73168;SDS011;61379;59.732;30.468;2023-06-26T00:44:46;12.00;;;10.77;;
73168;SDS011;61379;59.732;30.468;2023-06-26T00:47:14;13.27;;;11.45;;
73168;SDS011;61379;59.732;30.468;2023-06-26T00:49:42;14.60;;;11.73;;
73168;SDS011;61379;59.732;30.468;2023-06-26T00:52:09;13.85;;;12.43;;
73168;SDS011;61379;59.732;30.468;2023-06-26T00:54:36;14.38;;;12.75;;
73168;SDS011;61379;59.732;30.468;2023-06-26T00:57:04;13.57;;;12.13;;
73168;SDS011;61379;59.732;30.468;2023-06-26T00:59:31;13.48;;;12.02;;
73168;SDS011;61379;59.732;30.468;2023-06-26T01:01:58;12.75;;;11.45;;
73168;SDS011;61379;59.732;30.468;2023-06-26T01:04:25;14.63;;;11.30;;
73168;SDS011;61379;59.732;30.468;2023-06-26T01:06:53;13.00;;;11.55;;
73168;SDS011;61379;59.732;30.468;2023-06-26T01:09:22;11.45;;;10.23;;
73168;SDS011;61379;59.732;30.468;2023-06-26T01:14:17;13.85;;;10.88;;
73168;SDS011;61379;59.732;30.468;2023-06-26T01:16:44;14.13;;;11.95;;
73168;SDS011;61379;59.732;30.468;2023-06-26T01:19:19;17.13;;;12.30;;
73168;SDS011;61379;59.732;30.468;2023-06-26T01:21:51;23.92;;;12.05;;
73168;SDS011;61379;59.732;30.468;2023-06-26T01:24:18;16.92;;;11.20;;
73168;SDS011;61379;59.732;30.468;2023-06-26T01:26:47;21.42;;;11.80;;
73168;SDS011;61379;59.732;30.468;2023-06-26T01:29:15;20.08;;;12.52;;
73168;SDS011;61379;59.732;30.468;2023-06-26T01:31:43;18.77;;;11.68;;
73168;SDS011;61379;59.732;30.468;2023-06-26T01:34:11;24.00;;;13.05;;
73168;SDS011;61379;59.732;30.468;2023-06-26T01:36:38;19.85;;;13.15;;
73168;SDS011;61379;59.732;30.468;2023-06-26T01:39:05;22.45;;;11.38;;
73168;SDS011;61379;59.732;30.468;2023-06-26T01:41:33;18.15;;;13.70;;
73168;SDS011;61379;59.732;30.468;2023-06-26T01:44:06;13.95;;;11.70;;
73168;SDS011;61379;59.732;30.468;2023-06-26T01:46:36;19.13;;;11.75;;
73168;SDS011;61379;59.732;30.468;2023-06-26T01:49:07;17.20;;;12.43;;
73168;SDS011;61379;59.732;30.468;2023-06-26T01:51:38;18.50;;;12.32;;
73168;SDS011;61379;59.732;30.468;2023-06-26T01:54:06;19.25;;;11.07;;
73168;SDS011;61379;59.732;30.468;2023-06-26T01:56:34;19.52;;;12.43;;
73168;SDS011;61379;59.732;30.468;2023-06-26T01:59:02;20.55;;;13.13;;
73168;SDS011;61379;59.732;30.468;2023-06-26T02:01:31;17.02;;;12.07;;
73168;SDS011;61379;59.732;30.468;2023-06-26T02:03:58;18.50;;;12.95;;
73168;SDS011;61379;59.732;30.468;2023-06-26T02:06:25;14.77;;;13.07;;
73168;SDS011;61379;59.732;30.468;2023-06-26T02:08:52;22.80;;;12.50;;
73168;SDS011;61379;59.732;30.468;2023-06-26T02:11:22;21.25;;;13.15;;
73168;SDS011;61379;59.732;30.468;2023-06-26T02:13:48;23.23;;;12.82;;
73168;SDS011;61379;59.732;30.468;2023-06-26T02:16:16;21.60;;;12.85;;
73168;SDS011;61379;59.732;30.468;2023-06-26T02:18:44;19.83;;;13.00;;
73168;SDS011;61379;59.732;30.468;2023-06-26T02:21:10;21.50;;;13.10;;
73168;SDS011;61379;59.732;30.468;2023-06-26T02:23:37;23.55;;;14.15;;
73168;SDS011;61379;59.732;30.468;2023-06-26T02:26:04;21.08;;;13.02;;
73168;SDS011;61379;59.732;30.468;2023-06-26T02:28:31;27.67;;;13.93;;
73168;SDS011;61379;59.732;30.468;2023-06-26T02:30:59;22.98;;;12.20;;
73168;SDS011;61379;59.732;30.468;2023-06-26T02:33:27;25.20;;;11.75;;
73168;SDS011;61379;59.732;30.468;2023-06-26T02:35:54;15.82;;;11.25;;
73168;SDS011;61379;59.732;30.468;2023-06-26T02:38:21;14.50;;;11.43;;
73168;SDS011;61379;59.732;30.468;2023-06-26T02:40:47;13.52;;;11.68;;
73168;SDS011;61379;59.732;30.468;2023-06-26T02:43:14;13.85;;;11.23;;
73168;SDS011;61379;59.732;30.468;2023-06-26T02:45:41;13.65;;;10.90;;
73168;SDS011;61379;59.732;30.468;2023-06-26T02:48:08;14.63;;;10.82;;
73168;SDS011;61379;59.732;30.468;2023-06-26T02:50:36;11.55;;;10.35;;
73168;SDS011;61379;59.732;30.468;2023-06-26T02:53:03;14.95;;;10.30;;
73168;SDS011;61379;59.732;30.468;2023-06-26T02:55:29;11.95;;;10.23;;
73168;SDS011;61379;59.732;30.468;2023-06-26T02:57:56;12.63;;;11.32;;
73168;SDS011;61379;59.732;30.468;2023-06-26T03:00:23;13.20;;;11.23;;
73168;SDS011;61379;59.732;30.468;2023-06-26T03:02:50;12.32;;;11.07;;
73168;SDS011;61379;59.732;30.468;2023-06-26T03:05:17;13.02;;;11.57;;
73168;SDS011;61379;59.732;30.468;2023-06-26T03:07:45;14.00;;;11.32;;
73168;SDS011;61379;59.732;30.468;2023-06-26T03:10:12;11.65;;;10.55;;
73168;SDS011;61379;59.732;30.468;2023-06-26T03:12:39;11.93;;;9.95;;
73168;SDS011;61379;59.732;30.468;2023-06-26T03:15:06;13.20;;;10.07;;
73168;SDS011;61379;59.732;30.468;2023-06-26T03:17:33;12.63;;;11.05;;
73168;SDS011;61379;59.732;30.468;2023-06-26T03:19:59;10.43;;;9.38;;
73168;SDS011;61379;59.732;30.468;2023-06-26T03:22:26;12.00;;;10.80;;
73168;SDS011;61379;59.732;30.468;2023-06-26T03:24:55;12.40;;;11.10;;
73168;SDS011;61379;59.732;30.468;2023-06-26T03:27:21;11.13;;;9.98;;
73168;SDS011;61379;59.732;30.468;2023-06-26T03:29:48;12.02;;;10.80;;
73168;SDS011;61379;59.732;30.468;2023-06-26T03:32:15;12.90;;;10.80;;
73168;SDS011;61379;59.732;30.468;2023-06-26T03:34:42;12.35;;;11.13;;
73168;SDS011;61379;59.732;30.468;2023-06-26T03:37:08;11.90;;;10.65;;
73168;SDS011;61379;59.732;30.468;2023-06-26T03:39:35;12.35;;;11.25;;
73168;SDS011;61379;59.732;30.468;2023-06-26T03:42:04;15.15;;;11.55;;
73168;SDS011;61379;59.732;30.468;2023-06-26T03:44:31;13.52;;;11.45;;
73168;SDS011;61379;59.732;30.468;2023-06-26T03:46:57;12.48;;;10.60;;
73168;SDS011;61379;59.732;30.468;2023-06-26T03:49:24;15.45;;;11.25;;
73168;SDS011;61379;59.732;30.468;2023-06-26T03:51:51;11.85;;;10.75;;
73168;SDS011;61379;59.732;30.468;2023-06-26T03:54:18;13.13;;;10.80;;
73168;SDS011;61379;59.732;30.468;2023-06-26T03:56:44;11.32;;;10.18;;
73168;SDS011;61379;59.732;30.468;2023-06-26T03:59:12;11.90;;;10.75;;
73168;SDS011;61379;59.732;30.468;2023-06-26T04:01:39;12.30;;;11.15;;
73168;SDS011;61379;59.732;30.468;2023-06-26T04:04:06;11.63;;;10.48;;
73168;SDS011;61379;59.732;30.468;2023-06-26T04:06:33;11.77;;;10.57;;
73168;SDS011;61379;59.732;30.468;2023-06-26T04:09:00;11.40;;;10.20;;
73168;SDS011;61379;59.732;30.468;2023-06-26T04:11:26;11.65;;;10.45;;
73168;SDS011;61379;59.732;30.468;2023-06-26T04:13:53;11.65;;;10.45;;
73168;SDS011;61379;59.732;30.468;2023-06-26T04:16:21;15.18;;;10.95;;
73168;SDS011;61379;59.732;30.468;2023-06-26T04:18:50;12.35;;;11.05;;
73168;SDS011;61379;59.732;30.468;2023-06-26T04:21:17;13.23;;;11.93;;
73168;SDS011;61379;59.732;30.468;2023-06-26T04:23:45;12.35;;;11.15;;
73168;SDS011;61379;59.732;30.468;2023-06-26T04:26:12;12.55;;;11.30;;
73168;SDS011;61379;59.732;30.468;2023-06-26T04:28:40;13.00;;;11.60;;
73168;SDS011;61379;59.732;30.468;2023-06-26T04:31:07;12.30;;;11.20;;
73168;SDS011;61379;59.732;30.468;2023-06-26T04:33:36;12.38;;;11.10;;
73168;SDS011;61379;59.732;30.468;2023-06-26T04:36:03;12.30;;;11.02;;
73168;SDS011;61379;59.732;30.468;2023-06-26T04:38:29;12.38;;;11.02;;
73168;SDS011;61379;59.732;30.468;2023-06-26T04:40:56;11.55;;;10.45;;
73168;SDS011;61379;59.732;30.468;2023-06-26T04:43:23;12.00;;;10.80;;
73168;SDS011;61379;59.732;30.468;2023-06-26T04:45:50;12.27;;;11.00;;
73168;SDS011;61379;59.732;30.468;2023-06-26T04:48:16;10.70;;;9.70;;
73168;SDS011;61379;59.732;30.468;2023-06-26T04:50:45;12.18;;;11.02;;
73168;SDS011;61379;59.732;30.468;2023-06-26T04:53:19;12.40;;;11.02;;
73168;SDS011;61379;59.732;30.468;2023-06-26T04:55:47;11.70;;;10.50;;
73168;SDS011;61379;59.732;30.468;2023-06-26T04:58:13;10.77;;;9.68;;
73168;SDS011;61379;59.732;30.468;2023-06-26T05:00:40;11.30;;;10.18;;
73168;SDS011;61379;59.732;30.468;2023-06-26T05:03:08;10.68;;;9.60;;
73168;SDS011;61379;59.732;30.468;2023-06-26T05:05:35;10.93;;;9.82;;
73168;SDS011;61379;59.732;30.468;2023-06-26T05:08:14;10.20;;;9.20;;
73168;SDS011;61379;59.732;30.468;2023-06-26T05:10:41;10.10;;;9.10;;
73168;SDS011;61379;59.732;30.468;2023-06-26T05:13:08;10.60;;;9.60;;
73168;SDS011;61379;59.732;30.468;2023-06-26T05:15:34;10.10;;;9.02;;
73168;SDS011;61379;59.732;30.468;2023-06-26T05:18:01;11.02;;;9.95;;
73168;SDS011;61379;59.732;30.468;2023-06-26T05:20:28;10.38;;;9.45;;
73168;SDS011;61379;59.732;30.468;2023-06-26T05:22:55;10.13;;;9.25;;
73168;SDS011;61379;59.732;30.468;2023-06-26T05:25:23;11.82;;;9.65;;
73168;SDS011;61379;59.732;30.468;2023-06-26T05:27:50;10.98;;;9.90;;
73168;SDS011;61379;59.732;30.468;2023-06-26T05:30:17;10.35;;;9.35;;
73168;SDS011;61379;59.732;30.468;2023-06-26T05:32:44;11.60;;;10.45;;
73168;SDS011;61379;59.732;30.468;2023-06-26T05:35:13;10.15;;;9.15;;
73168;SDS011;61379;59.732;30.468;2023-06-26T05:37:40;9.63;;;8.68;;
73168;SDS011;61379;59.732;30.468;2023-06-26T05:40:07;10.43;;;9.52;;
73168;SDS011;61379;59.732;30.468;2023-06-26T05:42:36;11.32;;;10.32;;
73168;SDS011;61379;59.732;30.468;2023-06-26T05:45:03;10.35;;;9.45;;
73168;SDS011;61379;59.732;30.468;2023-06-26T05:47:30;9.73;;;8.93;;
73168;SDS011;61379;59.732;30.468;2023-06-26T05:49:57;10.25;;;9.40;;
73168;SDS011;61379;59.732;30.468;2023-06-26T05:52:24;11.32;;;10.32;;
73168;SDS011;61379;59.732;30.468;2023-06-26T05:54:51;11.80;;;10.75;;
73168;SDS011;61379;59.732;30.468;2023-06-26T05:57:18;11.43;;;10.40;;
73168;SDS011;61379;59.732;30.468;2023-06-26T05:59:46;10.70;;;9.70;;
73168;SDS011;61379;59.732;30.468;2023-06-26T06:02:13;10.35;;;9.38;;
73168;SDS011;61379;59.732;30.468;2023-06-26T06:04:40;11.20;;;10.02;;
73168;SDS011;61379;59.732;30.468;2023-06-26T06:07:07;11.50;;;9.60;;
73168;SDS011;61379;59.732;30.468;2023-06-26T06:09:34;10.88;;;9.98;;
73168;SDS011;61379;59.732;30.468;2023-06-26T06:12:00;11.15;;;10.15;;
73168;SDS011;61379;59.732;30.468;2023-06-26T06:14:29;10.82;;;9.80;;
73168;SDS011;61379;59.732;30.468;2023-06-26T06:16:57;10.75;;;9.75;;
73168;SDS011;61379;59.732;30.468;2023-06-26T06:19:24;10.02;;;9.13;;
73168;SDS011;61379;59.732;30.468;2023-06-26T06:21:50;9.88;;;8.88;;
73168;SDS011;61379;59.732;30.468;2023-06-26T06:24:17;11.85;;;9.27;;
73168;SDS011;61379;59.732;30.468;2023-06-26T06:26:44;10.35;;;9.45;;
73168;SDS011;61379;59.732;30.468;2023-06-26T06:29:10;10.73;;;9.60;;
73168;SDS011;61379;59.732;30.468;2023-06-26T06:31:37;11.27;;;10.30;;
73168;SDS011;61379;59.732;30.468;2023-06-26T06:34:05;10.27;;;9.38;;
73168;SDS011;61379;59.732;30.468;2023-06-26T06:36:32;12.25;;;10.07;;
73168;SDS011;61379;59.732;30.468;2023-06-26T06:38:59;10.38;;;9.48;;
73168;SDS011;61379;59.732;30.468;2023-06-26T06:41:25;10.52;;;9.73;;
73168;SDS011;61379;59.732;30.468;2023-06-26T06:43:52;10.20;;;9.18;;
73168;SDS011;61379;59.732;30.468;2023-06-26T06:46:19;10.45;;;9.55;;
73168;SDS011;61379;59.732;30.468;2023-06-26T06:48:46;9.35;;;8.45;;
73168;SDS011;61379;59.732;30.468;2023-06-26T06:51:14;9.95;;;9.15;;
73168;SDS011;61379;59.732;30.468;2023-06-26T06:53:41;9.40;;;8.63;;
73168;SDS011;61379;59.732;30.468;2023-06-26T06:56:07;10.32;;;9.32;;
73168;SDS011;61379;59.732;30.468;2023-06-26T06:58:34;10.57;;;9.68;;
73168;SDS011;61379;59.732;30.468;2023-06-26T07:01:01;9.13;;;8.40;;
73168;SDS011;61379;59.732;30.468;2023-06-26T07:03:29;9.80;;;8.88;;
73168;SDS011;61379;59.732;30.468;2023-06-26T07:05:56;10.27;;;9.27;;
73168;SDS011;61379;59.732;30.468;2023-06-26T07:08:24;10.30;;;9.50;;
73168;SDS011;61379;59.732;30.468;2023-06-26T07:10:51;9.98;;;9.25;;
73168;SDS011;61379;59.732;30.468;2023-06-26T07:13:17;9.85;;;9.15;;
73168;SDS011;61379;59.732;30.468;2023-06-26T07:15:44;8.80;;;8.10;;
73168;SDS011;61379;59.732;30.468;2023-06-26T07:18:13;9.82;;;8.88;;
73168;SDS011;61379;59.732;30.468;2023-06-26T07:20:40;9.13;;;8.43;;
73168;SDS011;61379;59.732;30.468;2023-06-26T07:23:06;9.93;;;9.13;;
73168;SDS011;61379;59.732;30.468;2023-06-26T07:25:35;11.07;;;10.18;;
73168;SDS011;61379;59.732;30.468;2023-06-26T07:28:01;9.85;;;9.07;;
73168;SDS011;61379;59.732;30.468;2023-06-26T07:30:28;10.98;;;9.45;;
73168;SDS011;61379;59.732;30.468;2023-06-26T07:32:55;10.70;;;9.88;;
73168;SDS011;61379;59.732;30.468;2023-06-26T07:35:22;9.35;;;8.57;;
73168;SDS011;61379;59.732;30.468;2023-06-26T07:37:50;11.18;;;10.18;;
73168;SDS011;61379;59.732;30.468;2023-06-26T07:40:17;10.20;;;9.40;;
73168;SDS011;61379;59.732;30.468;2023-06-26T07:42:47;10.25;;;9.35;;
73168;SDS011;61379;59.732;30.468;2023-06-26T07:45:14;10.73;;;9.82;;
73168;SDS011;61379;59.732;30.468;2023-06-26T07:47:41;9.73;;;8.95;;
73168;SDS011;61379;59.732;30.468;2023-06-26T07:50:08;10.20;;;9.40;;
73168;SDS011;61379;59.732;30.468;2023-06-26T07:52:35;10.10;;;9.30;;
73168;SDS011;61379;59.732;30.468;2023-06-26T07:55:01;9.93;;;9.13;;
73168;SDS011;61379;59.732;30.468;2023-06-26T07:57:29;9.70;;;8.90;;
73168;SDS011;61379;59.732;30.468;2023-06-26T07:59:58;9.82;;;9.02;;
73168;SDS011;61379;59.732;30.468;2023-06-26T08:02:25;10.50;;;9.68;;
73168;SDS011;61379;59.732;30.468;2023-06-26T08:04:52;10.07;;;9.18;;
73168;SDS011;61379;59.732;30.468;2023-06-26T08:07:18;10.88;;;9.93;;
73168;SDS011;61379;59.732;30.468;2023-06-26T08:09:45;10.60;;;9.70;;
73168;SDS011;61379;59.732;30.468;2023-06-26T08:12:12;10.40;;;9.65;;
73168;SDS011;61379;59.732;30.468;2023-06-26T08:14:39;9.80;;;9.02;;
73168;SDS011;61379;59.732;30.468;2023-06-26T08:17:07;10.02;;;9.23;;
73168;SDS011;61379;59.732;30.468;2023-06-26T08:19:33;11.05;;;10.05;;
73168;SDS011;61379;59.732;30.468;2023-06-26T08:22:00;10.35;;;9.65;;
73168;SDS011;61379;59.732;30.468;2023-06-26T08:24:27;10.55;;;9.85;;
73168;SDS011;61379;59.732;30.468;2023-06-26T08:26:54;11.48;;;10.38;;
73168;SDS011;61379;59.732;30.468;2023-06-26T08:29:21;10.75;;;9.95;;
73168;SDS011;61379;59.732;30.468;2023-06-26T08:31:48;10.70;;;9.68;;
73168;SDS011;61379;59.732;30.468;2023-06-26T08:34:16;10.60;;;9.77;;
73168;SDS011;61379;59.732;30.468;2023-06-26T08:36:42;10.07;;;9.38;;
73168;SDS011;61379;59.732;30.468;2023-06-26T08:39:10;10.07;;;9.35;;
73168;SDS011;61379;59.732;30.468;2023-06-26T08:41:36;10.13;;;9.30;;
73168;SDS011;61379;59.732;30.468;2023-06-26T08:44:03;9.95;;;9.23;;
73168;SDS011;61379;59.732;30.468;2023-06-26T08:46:31;10.25;;;9.45;;
73168;SDS011;61379;59.732;30.468;2023-06-26T08:49:00;11.15;;;10.20;;
73168;SDS011;61379;59.732;30.468;2023-06-26T08:51:28;10.20;;;9.43;;
73168;SDS011;61379;59.732;30.468;2023-06-26T08:53:57;9.75;;;8.95;;
73168;SDS011;61379;59.732;30.468;2023-06-26T08:56:24;9.50;;;8.70;;
73168;SDS011;61379;59.732;30.468;2023-06-26T08:58:51;10.43;;;9.73;;
73168;SDS011;61379;59.732;30.468;2023-06-26T09:01:18;9.82;;;9.02;;
73168;SDS011;61379;59.732;30.468;2023-06-26T09:03:45;11.00;;;10.05;;
73168;SDS011;61379;59.732;30.468;2023-06-26T09:06:12;9.23;;;8.52;;
73168;SDS011;61379;59.732;30.468;2023-06-26T09:08:40;10.25;;;9.40;;
73168;SDS011;61379;59.732;30.468;2023-06-26T09:11:07;10.00;;;9.15;;
73168;SDS011;61379;59.732;30.468;2023-06-26T09:13:33;10.52;;;9.80;;
73168;SDS011;61379;59.732;30.468;2023-06-26T09:16:03;9.98;;;9.20;;
73168;SDS011;61379;59.732;30.468;2023-06-26T09:18:31;9.95;;;9.10;;
73168;SDS011;61379;59.732;30.468;2023-06-26T09:20:58;9.90;;;9.00;;
73168;SDS011;61379;59.732;30.468;2023-06-26T09:23:24;10.27;;;9.48;;
73168;SDS011;61379;59.732;30.468;2023-06-26T09:25:53;10.38;;;9.40;;
73168;SDS011;61379;59.732;30.468;2023-06-26T09:28:20;9.90;;;9.20;;
73168;SDS011;61379;59.732;30.468;2023-06-26T09:30:47;9.05;;;8.25;;
73168;SDS011;61379;59.732;30.468;2023-06-26T09:33:16;9.82;;;9.13;;
73168;SDS011;61379;59.732;30.468;2023-06-26T09:35:43;9.88;;;9.10;;
73168;SDS011;61379;59.732;30.468;2023-06-26T09:38:10;9.38;;;8.68;;
73168;SDS011;61379;59.732;30.468;2023-06-26T09:40:36;9.88;;;9.07;;
73168;SDS011;61379;59.732;30.468;2023-06-26T09:43:05;9.43;;;8.57;;
73168;SDS011;61379;59.732;30.468;2023-06-26T09:45:32;9.30;;;8.60;;
73168;SDS011;61379;59.732;30.468;2023-06-26T09:48:00;11.35;;;10.45;;
73168;SDS011;61379;59.732;30.468;2023-06-26T09:50:27;8.90;;;8.20;;
73168;SDS011;61379;59.732;30.468;2023-06-26T09:52:54;9.60;;;8.90;;
73168;SDS011;61379;59.732;30.468;2023-06-26T09:55:21;10.65;;;9.88;;
73168;SDS011;61379;59.732;30.468;2023-06-26T09:57:49;9.63;;;8.82;;
73168;SDS011;61379;59.732;30.468;2023-06-26T10:00:18;9.35;;;8.65;;
73168;SDS011;61379;59.732;30.468;2023-06-26T10:02:45;9.48;;;8.60;;
73168;SDS011;61379;59.732;30.468;2023-06-26T10:05:12;10.40;;;9.60;;
73168;SDS011;61379;59.732;30.468;2023-06-26T10:07:39;10.55;;;9.65;;
73168;SDS011;61379;59.732;30.468;2023-06-26T10:10:07;10.45;;;9.65;;
73168;SDS011;61379;59.732;30.468;2023-06-26T10:12:35;9.65;;;8.75;;
73168;SDS011;61379;59.732;30.468;2023-06-26T10:15:02;9.35;;;8.55;;
73168;SDS011;61379;59.732;30.468;2023-06-26T10:17:34;9.48;;;8.65;;
73168;SDS011;61379;59.732;30.468;2023-06-26T10:20:01;10.00;;;9.07;;
73168;SDS011;61379;59.732;30.468;2023-06-26T10:22:32;9.85;;;9.15;;
73168;SDS011;61379;59.732;30.468;2023-06-26T10:32:19;10.27;;;9.57;;
73168;SDS011;61379;59.732;30.468;2023-06-26T10:34:48;10.13;;;9.43;;
73168;SDS011;61379;59.732;30.468;2023-06-26T10:37:15;10.50;;;9.80;;
73168;SDS011;61379;59.732;30.468;2023-06-26T10:39:48;9.68;;;8.88;;
73168;SDS011;61379;59.732;30.468;2023-06-26T10:42:15;10.80;;;9.90;;
73168;SDS011;61379;59.732;30.468;2023-06-26T10:44:43;10.30;;;9.43;;
73168;SDS011;61379;59.732;30.468;2023-06-26T10:47:10;10.32;;;9.50;;
73168;SDS011;61379;59.732;30.468;2023-06-26T10:49:37;10.45;;;9.55;;
73168;SDS011;61379;59.732;30.468;2023-06-26T10:52:06;10.38;;;9.68;;
73168;SDS011;61379;59.732;30.468;2023-06-26T10:54:33;10.18;;;9.48;;
73168;SDS011;61379;59.732;30.468;2023-06-26T10:57:00;9.40;;;8.70;;
73168;SDS011;61379;59.732;30.468;2023-06-26T10:59:28;10.40;;;9.38;;
73168;SDS011;61379;59.732;30.468;2023-06-26T11:01:55;11.02;;;10.20;;
73168;SDS011;61379;59.732;30.468;2023-06-26T11:04:35;9.98;;;9.27;;
73168;SDS011;61379;59.732;30.468;2023-06-26T11:07:16;10.23;;;9.52;;
73168;SDS011;61379;59.732;30.468;2023-06-26T11:09:54;10.50;;;9.75;;
73168;SDS011;61379;59.732;30.468;2023-06-26T11:15:03;11.80;;;10.80;;
73168;SDS011;61379;59.732;30.468;2023-06-26T11:17:30;10.18;;;9.18;;
73168;SDS011;61379;59.732;30.468;2023-06-26T11:19:57;8.98;;;8.32;;
73168;SDS011;61379;59.732;30.468;2023-06-26T11:22:26;9.85;;;9.05;;
73168;SDS011;61379;59.732;30.468;2023-06-26T11:24:53;9.75;;;8.98;;
73168;SDS011;61379;59.732;30.468;2023-06-26T11:27:20;10.02;;;9.18;;
73168;SDS011;61379;59.732;30.468;2023-06-26T11:29:49;9.70;;;8.90;;
73168;SDS011;61379;59.732;30.468;2023-06-26T11:32:16;9.25;;;8.48;;
73168;SDS011;61379;59.732;30.468;2023-06-26T11:34:43;11.15;;;10.25;;
73168;SDS011;61379;59.732;30.468;2023-06-26T11:37:09;9.90;;;9.10;;
73168;SDS011;61379;59.732;30.468;2023-06-26T11:39:38;10.45;;;9.35;;
73168;SDS011;61379;59.732;30.468;2023-06-26T11:42:05;11.65;;;8.73;;
73168;SDS011;61379;59.732;30.468;2023-06-26T11:44:32;13.95;;;12.75;;
73168;SDS011;61379;59.732;30.468;2023-06-26T11:47:06;18.77;;;12.00;;
73168;SDS011;61379;59.732;30.468;2023-06-26T11:49:32;12.35;;;11.25;;
73168;SDS011;61379;59.732;30.468;2023-06-26T11:51:59;12.32;;;11.15;;
73168;SDS011;61379;59.732;30.468;2023-06-26T11:54:30;11.32;;;10.27;;
73168;SDS011;61379;59.732;30.468;2023-06-26T11:56:58;11.60;;;10.55;;
73168;SDS011;61379;59.732;30.468;2023-06-26T11:59:35;11.60;;;10.50;;
73168;SDS011;61379;59.732;30.468;2023-06-26T12:02:05;10.48;;;9.57;;
73168;SDS011;61379;59.732;30.468;2023-06-26T12:04:33;10.50;;;9.60;;
73168;SDS011;61379;59.732;30.468;2023-06-26T12:07:00;10.63;;;9.63;;
73168;SDS011;61379;59.732;30.468;2023-06-26T12:09:32;8.88;;;7.95;;
73168;SDS011;61379;59.732;30.468;2023-06-26T12:12:01;12.52;;;9.23;;
73168;SDS011;61379;59.732;30.468;2023-06-26T12:14:28;9.55;;;8.65;;
73168;SDS011;61379;59.732;30.468;2023-06-26T12:16:55;9.85;;;8.95;;
73168;SDS011;61379;59.732;30.468;2023-06-26T12:19:25;9.70;;;8.88;;
73168;SDS011;61379;59.732;30.468;2023-06-26T12:21:52;9.38;;;8.55;;
73168;SDS011;61379;59.732;30.468;2023-06-26T12:24:22;9.73;;;8.85;;
73168;SDS011;61379;59.732;30.468;2023-06-26T12:26:50;10.07;;;9.18;;
73168;SDS011;61379;59.732;30.468;2023-06-26T12:29:20;10.85;;;8.15;;
73168;SDS011;61379;59.732;30.468;2023-06-26T12:31:48;19.83;;;9.55;;
73168;SDS011;61379;59.732;30.468;2023-06-26T12:34:17;14.35;;;11.20;;
73168;SDS011;61379;59.732;30.468;2023-06-26T12:36:44;12.60;;;11.30;;
73168;SDS011;61379;59.732;30.468;2023-06-26T12:39:13;15.70;;;12.50;;
73168;SDS011;61379;59.732;30.468;2023-06-26T12:41:46;13.35;;;11.63;;
73168;SDS011;61379;59.732;30.468;2023-06-26T12:44:17;13.85;;;12.75;;
73168;SDS011;61379;59.732;30.468;2023-06-26T12:46:47;14.13;;;12.27;;
73168;SDS011;61379;59.732;30.468;2023-06-26T12:49:14;12.98;;;11.70;;
73168;SDS011;61379;59.732;30.468;2023-06-26T12:51:41;13.00;;;11.77;;
73168;SDS011;61379;59.732;30.468;2023-06-26T12:54:08;12.15;;;11.07;;
73168;SDS011;61379;59.732;30.468;2023-06-26T12:56:35;12.70;;;11.50;;
73168;SDS011;61379;59.732;30.468;2023-06-26T12:59:01;12.60;;;11.32;;
73168;SDS011;61379;59.732;30.468;2023-06-26T13:01:28;13.52;;;12.20;;
73168;SDS011;61379;59.732;30.468;2023-06-26T13:03:56;14.10;;;11.05;;
73168;SDS011;61379;59.732;30.468;2023-06-26T13:06:23;13.45;;;11.43;;
73168;SDS011;61379;59.732;30.468;2023-06-26T13:08:50;11.65;;;10.50;;
73168;SDS011;61379;59.732;30.468;2023-06-26T13:11:17;13.70;;;10.82;;
73168;SDS011;61379;59.732;30.468;2023-06-26T13:13:44;13.35;;;11.32;;
73168;SDS011;61379;59.732;30.468;2023-06-26T13:16:10;15.30;;;11.68;;
73168;SDS011;61379;59.732;30.468;2023-06-26T13:18:37;14.60;;;11.52;;
73168;SDS011;61379;59.732;30.468;2023-06-26T13:21:05;13.45;;;12.05;;
73168;SDS011;61379;59.732;30.468;2023-06-26T13:23:32;15.77;;;14.18;;
73168;SDS011;61379;59.732;30.468;2023-06-26T13:25:59;14.35;;;12.90;;
73168;SDS011;61379;59.732;30.468;2023-06-26T13:28:25;14.40;;;12.93;;
73168;SDS011;61379;59.732;30.468;2023-06-26T13:30:52;17.40;;;13.30;;
73168;SDS011;61379;59.732;30.468;2023-06-26T13:33:19;12.88;;;11.75;;
73168;SDS011;61379;59.732;30.468;2023-06-26T13:35:46;14.02;;;12.35;;
73168;SDS011;61379;59.732;30.468;2023-06-26T13:38:14;13.18;;;11.85;;
73168;SDS011;61379;59.732;30.468;2023-06-26T13:40:42;16.35;;;12.05;;
73168;SDS011;61379;59.732;30.468;2023-06-26T13:43:08;14.27;;;12.82;;
73168;SDS011;61379;59.732;30.468;2023-06-26T13:45:35;13.73;;;12.32;;
73168;SDS011;61379;59.732;30.468;2023-06-26T13:48:02;14.63;;;12.77;;
73168;SDS011;61379;59.732;30.468;2023-06-26T13:50:29;13.70;;;12.25;;
73168;SDS011;61379;59.732;30.468;2023-06-26T13:52:55;13.15;;;11.52;;
73168;SDS011;61379;59.732;30.468;2023-06-26T13:55:23;13.60;;;11.38;;
73168;SDS011;61379;59.732;30.468;2023-06-26T13:57:50;19.73;;;13.85;;
73168;SDS011;61379;59.732;30.468;2023-06-26T14:00:17;15.27;;;11.48;;
73168;SDS011;61379;59.732;30.468;2023-06-26T14:02:47;16.50;;;13.48;;
73168;SDS011;61379;59.732;30.468;2023-06-26T14:05:14;13.13;;;11.90;;
73168;SDS011;61379;59.732;30.468;2023-06-26T14:07:43;14.18;;;12.77;;
73168;SDS011;61379;59.732;30.468;2023-06-26T14:10:10;12.88;;;11.68;;
73168;SDS011;61379;59.732;30.468;2023-06-26T14:12:38;15.80;;;12.13;;
73168;SDS011;61379;59.732;30.468;2023-06-26T14:15:05;12.63;;;10.93;;
73168;SDS011;61379;59.732;30.468;2023-06-26T14:17:32;13.32;;;11.40;;
73168;SDS011;61379;59.732;30.468;2023-06-26T14:19:59;13.23;;;11.82;;
73168;SDS011;61379;59.732;30.468;2023-06-26T14:22:26;15.38;;;11.63;;
73168;SDS011;61379;59.732;30.468;2023-06-26T14:24:52;11.85;;;10.68;;
73168;SDS011;61379;59.732;30.468;2023-06-26T14:27:19;11.88;;;10.60;;
73168;SDS011;61379;59.732;30.468;2023-06-26T14:29:47;13.95;;;11.35;;